Dzhenish, Kyrgyzstan

1:20 PM +06 on June 28, 2017 (GMT +0600)
Khudzhand | | Change Station

Elev 1450 ft 40.22 °N, 69.70 °E | Updated 20 minutes ago

Clear
Clear
90 °F
Feels Like 90 °F
N
4
Wind Variable Wind from SW

Today
High -- | Low -- °F
--% Chance of Precip.
Yesterday
High -- | Low -- °F
Precip. -- in
Pressure 29.86 in
Visibility 6.2 miles
Clouds Few 6600 ft
Dew Point 52 °F
Humidity 27%
Rainfall 0.00 in
Snow Depth Not available.
5:56 AM 8:55 PM
Waxing Crescent, 23% visible
METAR UTDL 280700Z 22002MPS 140V270 9999 FEW066CB 32/11 Q1011 88CLRD70 NOSIG RMK QFE719/0959
Pressure 29.86 in
Visibility 6.2 miles
Clouds Few 6600 ft
Dew Point 52 °F
Humidity 27%
Rainfall 0.00 in
Snow Depth Not available.
5:56 AM 8:55 PM
Waxing Crescent, 23% visible
METAR UTDL 280700Z 22002MPS 140V270 9999 FEW066CB 32/11 Q1011 88CLRD70 NOSIG RMK QFE719/0959

Get Severe Weather Alerts

Thanks for signing up!

Be on the lookout for a verification email in your inbox.

You'll start receiving the daily forecast at 6 AM.

×

10-Day Weather Forecast

No radar image for this location.
×

Almanac

Astronomy

Jun. 28, 2017 Rise Set
Actual Time
Civil Twilight
Nautical Twilight
Astronomical Twilight
Moon
Length of Visible Light
Length of Day
Tomorrow will be .
, % of the Moon is Illuminated

Today's Extremes

Country Highs Country Lows

Community

WunderPhotos

Category 6

Welcome to Category 6. This is the collective home for Weather Underground's featured writeups by Dr. Jeff Masters (right), Bob Henson (left), Chris Burt, and other regular contributors.

Nearby

Air Quality

  Air Quality AQ Index Pollutant
Not available.

Snow Depth

Station Depth Elevation

Earthquake Activity

City Distance Mag. Time & Date
Minimum magnitude displayed is 2.5.

Coastal Water Temperatures

Place Temperature

Stations

Nearby Weather Stations

Station Location Temp. Windchill Dew Point Humidity Wind Precip. Elev Updated Type